createdAt,value
2022-08-20T00:03:31.961Z,98.78
2022-08-20T00:08:39.386Z,83.82
2022-08-20T00:13:51.993Z,64.57
2022-08-20T00:18:58.393Z,13.88
2022-08-20T00:24:06.505Z,27.00
2022-08-20T00:29:14.089Z,29.00
2022-08-20T00:34:22.738Z,17.00
2022-08-20T00:39:29.076Z,9.43
2022-08-20T00:44:37.098Z,14.05
2022-08-20T00:49:43.263Z,10.55
2022-08-20T00:54:56.711Z,7.50
2022-08-20T01:00:10.934Z,6.53
2022-08-20T01:05:17.463Z,7.70
2022-08-20T01:10:28.807Z,6.28
2022-08-20T01:15:42.942Z,12.63
2022-08-20T01:20:54.210Z,8.10
2022-08-20T01:26:07.481Z,7.57
2022-08-20T01:31:17.808Z,6.20
2022-08-20T01:36:30.726Z,7.55
2022-08-20T01:41:51.290Z,10.95
2022-08-20T01:46:58.050Z,13.35
2022-08-20T01:52:10.196Z,8.10
2022-08-20T01:57:20.766Z,6.85
2022-08-20T02:02:28.300Z,9.18
2022-08-20T02:07:34.863Z,5.97
2022-08-20T02:12:43.499Z,6.55
2022-08-20T02:23:00.101Z,10.60
2022-08-20T02:28:16.868Z,7.82
2022-08-20T02:33:24.702Z,10.25
2022-08-20T02:38:31.556Z,5.43
2022-08-20T02:43:39.513Z,7.10
2022-08-20T02:48:46.150Z,19.42
2022-08-20T02:53:52.483Z,16.45
2022-08-20T02:59:00.402Z,10.10
2022-08-20T03:04:07.410Z,8.82
2022-08-20T03:09:13.720Z,8.68
2022-08-20T03:14:21.637Z,6.20
2022-08-20T03:19:28.573Z,10.97
2022-08-20T03:24:35.092Z,9.13
2022-08-20T03:29:43.055Z,7.43
2022-08-20T03:34:49.338Z,10.13
2022-08-20T03:39:56.858Z,7.55
2022-08-20T03:45:04.641Z,7.03
2022-08-20T03:50:14.601Z,6.43
2022-08-20T03:55:32.059Z,6.05
2022-08-20T04:00:44.082Z,8.32
2022-08-20T04:05:50.690Z,7.30
2022-08-20T04:10:59.997Z,7.10
2022-08-20T04:16:10.152Z,9.50
2022-08-20T04:21:19.609Z,9.40
2022-08-20T04:26:26.164Z,9.57
2022-08-20T04:31:35.181Z,6.63
2022-08-20T04:36:41.790Z,9.05
2022-08-20T04:41:48.543Z,9.25
2022-08-20T04:46:56.231Z,8.93
2022-08-20T04:52:03.563Z,10.83
2022-08-20T04:57:09.842Z,18.80
2022-08-20T05:02:19.109Z,14.70
2022-08-20T05:07:26.457Z,12.60
2022-08-20T05:12:32.993Z,20.73
2022-08-20T05:17:41.957Z,13.35
2022-08-20T05:22:48.155Z,9.07
2022-08-20T05:28:01.055Z,9.20
2022-08-20T05:33:10.492Z,11.30
2022-08-20T05:38:21.198Z,5.53
2022-08-20T05:43:27.683Z,10.35
2022-08-20T05:48:36.104Z,11.13
2022-08-20T05:53:42.246Z,7.43
2022-08-20T05:58:48.428Z,9.13
2022-08-20T06:04:17.174Z,7.65
2022-08-20T06:09:31.220Z,7.50
2022-08-20T06:14:39.103Z,11.30
2022-08-20T06:19:48.886Z,8.77
2022-08-20T06:24:56.605Z,11.13
2022-08-20T06:30:02.802Z,8.52
2022-08-20T06:35:14.971Z,6.35
2022-08-20T06:40:27.742Z,7.57
2022-08-20T06:45:36.381Z,7.82
2022-08-20T06:50:48.049Z,7.35
2022-08-20T06:55:56.906Z,8.35
2022-08-20T07:01:09.364Z,7.50
2022-08-20T07:06:19.380Z,6.97
2022-08-20T07:11:28.061Z,12.23
2022-08-20T07:16:35.254Z,7.78
2022-08-20T07:21:43.230Z,15.63
2022-08-20T07:26:51.419Z,12.52
2022-08-20T07:32:15.909Z,11.98
2022-08-20T07:37:29.856Z,8.13
2022-08-20T07:42:37.021Z,16.30
2022-08-20T07:47:45.348Z,11.13
2022-08-20T07:52:53.597Z,11.50
2022-08-20T07:58:08.084Z,14.30
2022-08-20T08:03:15.381Z,8.02
2022-08-20T08:08:28.906Z,8.80
2022-08-20T08:13:39.811Z,8.02
2022-08-20T08:18:51.796Z,8.30
2022-08-20T08:23:59.975Z,10.90
2022-08-20T08:29:07.671Z,11.10
2022-08-20T08:34:14.538Z,9.27
2022-08-20T08:39:22.608Z,13.10
2022-08-20T08:44:35.336Z,10.32
2022-08-20T08:49:41.879Z,9.38
2022-08-20T08:54:53.498Z,18.75
2022-08-20T09:00:05.970Z,15.02
2022-08-20T09:05:18.086Z,10.45
2022-08-20T09:10:26.378Z,11.77
2022-08-20T09:15:33.022Z,9.73
2022-08-20T09:20:39.396Z,9.55
2022-08-20T09:25:46.993Z,7.43
2022-08-20T09:30:53.424Z,20.17
2022-08-20T09:36:01.752Z,8.23
2022-08-20T09:46:15.389Z,7.40
2022-08-20T09:51:21.694Z,8.60
2022-08-20T09:56:31.057Z,7.32
2022-08-20T10:01:37.414Z,8.85
2022-08-20T10:06:44.523Z,11.13
2022-08-20T10:11:52.876Z,8.73
2022-08-20T10:17:01.382Z,10.13
2022-08-20T10:22:08.020Z,8.57
2022-08-20T10:27:15.975Z,13.88
2022-08-20T10:32:22.872Z,10.75
2022-08-20T10:37:35.160Z,9.10
2022-08-20T10:42:43.757Z,7.90
2022-08-20T10:47:50.351Z,7.53
2022-08-20T10:52:56.864Z,6.88
2022-08-20T10:58:07.888Z,8.98
2022-08-20T11:03:18.291Z,6.18
2022-08-20T11:08:33.490Z,6.18
2022-08-20T11:13:43.041Z,5.60
2022-08-20T11:18:49.803Z,12.70
2022-08-20T11:23:58.870Z,8.05
2022-08-20T11:29:10.197Z,5.22
2022-08-20T11:34:16.774Z,11.50
2022-08-20T11:39:23.168Z,6.25
2022-08-20T11:44:31.135Z,8.00
2022-08-20T11:54:45.387Z,10.10
2022-08-20T11:59:55.638Z,10.18
2022-08-20T12:05:02.167Z,5.75
2022-08-20T12:10:11.639Z,5.93
2022-08-20T12:15:19.807Z,8.90
2022-08-20T12:20:26.815Z,7.20
2022-08-20T12:25:33.305Z,8.07
2022-08-20T12:30:42.736Z,5.25
2022-08-20T12:35:49.022Z,7.05
2022-08-20T12:40:55.217Z,8.20
2022-08-20T12:46:03.060Z,8.70
2022-08-20T12:51:09.356Z,13.95
2022-08-20T12:56:15.428Z,8.88
2022-08-20T13:01:23.340Z,7.13
2022-08-20T13:11:37.259Z,6.43
2022-08-20T13:16:46.031Z,8.95
2022-08-20T13:21:55.090Z,11.20
2022-08-20T13:27:08.506Z,8.18
2022-08-20T13:32:17.261Z,8.65
2022-08-20T13:37:28.572Z,8.35
2022-08-20T13:42:34.889Z,7.63
2022-08-20T13:47:44.475Z,7.93
2022-08-20T13:52:51.298Z,7.95
2022-08-20T13:57:59.331Z,7.00
2022-08-20T14:08:17.472Z,10.13
2022-08-20T14:13:28.714Z,7.28
2022-08-20T14:18:36.605Z,5.70
2022-08-20T14:23:44.267Z,7.65
2022-08-20T14:28:50.593Z,6.97
2022-08-20T14:33:59.346Z,7.32
2022-08-20T14:39:15.305Z,5.82
2022-08-20T14:44:30.214Z,5.90
2022-08-20T14:49:58.007Z,6.88
2022-08-20T14:55:15.966Z,11.30
2022-08-20T15:00:37.494Z,8.13
2022-08-20T15:05:59.445Z,6.95
2022-08-20T15:11:18.070Z,6.40
2022-08-20T15:16:32.254Z,6.72
2022-08-20T15:21:45.079Z,7.72
2022-08-20T15:26:52.416Z,8.75
2022-08-20T15:32:01.377Z,6.78
2022-08-20T15:37:13.520Z,6.85
2022-08-20T15:42:22.017Z,8.32
2022-08-20T15:47:32.472Z,6.78
2022-08-20T15:52:45.250Z,8.18
2022-08-20T15:58:01.308Z,8.55
2022-08-20T16:03:36.982Z,7.35
2022-08-20T16:09:16.014Z,7.28
2022-08-20T16:14:29.531Z,6.20
2022-08-20T16:19:54.168Z,8.30
2022-08-20T16:25:03.341Z,6.90
2022-08-20T16:30:18.927Z,6.78
2022-08-20T16:35:34.155Z,10.40
2022-08-20T16:40:49.989Z,9.70
2022-08-20T16:46:02.176Z,9.40
2022-08-20T16:51:14.865Z,11.00
2022-08-20T16:56:36.340Z,12.93
2022-08-20T17:01:43.387Z,9.18
2022-08-20T17:06:52.921Z,10.80
2022-08-20T17:12:20.923Z,9.90
2022-08-20T17:17:31.497Z,11.65
2022-08-20T17:22:45.321Z,13.98
2022-08-20T17:27:53.350Z,14.18
2022-08-20T17:33:03.395Z,13.07
2022-08-20T17:38:24.711Z,12.05
2022-08-20T17:43:35.775Z,12.73
2022-08-20T17:48:55.220Z,9.95
2022-08-20T17:54:13.546Z,12.30
2022-08-20T18:05:12.121Z,9.80
2022-08-20T18:10:25.536Z,12.02
2022-08-20T18:15:38.307Z,15.20
2022-08-20T18:21:33.377Z,11.00
2022-08-20T18:26:50.806Z,6.57
2022-08-20T18:37:25.577Z,10.02
2022-08-20T18:42:36.843Z,8.95
2022-08-20T18:47:47.953Z,8.05
2022-08-20T18:58:34.249Z,8.27
2022-08-20T19:12:45.994Z,8.15
2022-08-20T19:17:59.646Z,8.13
2022-08-20T19:23:10.189Z,11.10
2022-08-20T19:28:25.498Z,10.35
2022-08-20T19:33:43.850Z,10.57
2022-08-20T19:38:52.421Z,11.38
2022-08-20T19:44:03.153Z,10.37
2022-08-20T19:49:21.486Z,7.97
2022-08-20T19:54:29.866Z,8.15
2022-08-20T19:59:37.609Z,6.63
2022-08-20T20:04:54.863Z,8.90
2022-08-20T20:13:21.737Z,13.52
2022-08-20T20:18:31.147Z,11.30
2022-08-20T20:23:46.812Z,8.00
2022-08-20T20:33:20.230Z,6.80
2022-08-20T20:38:29.528Z,9.15
2022-08-20T20:47:53.202Z,7.38
2022-08-20T20:56:02.693Z,9.20
2022-08-20T21:01:10.039Z,7.85
2022-08-20T21:06:16.402Z,7.53
2022-08-20T21:11:24.258Z,5.13
2022-08-20T21:16:31.352Z,9.67
2022-08-20T21:21:38.550Z,9.48
2022-08-20T21:26:46.089Z,7.65
2022-08-20T21:31:52.489Z,7.63
2022-08-20T21:36:59.394Z,8.50
2022-08-20T21:42:22.942Z,7.32
2022-08-20T21:47:35.543Z,9.10
2022-08-20T21:52:55.186Z,6.63
2022-08-20T21:58:08.582Z,7.97
2022-08-20T22:03:15.713Z,5.80
2022-08-20T22:08:26.082Z,7.65
2022-08-20T22:13:37.653Z,7.10
2022-08-20T22:18:44.581Z,4.35
2022-08-20T22:23:52.186Z,5.63
2022-08-20T22:28:59.621Z,5.50
2022-08-20T22:34:07.360Z,4.73
2022-08-20T22:39:14.153Z,4.90
2022-08-20T22:44:21.855Z,6.95
2022-08-20T22:49:30.298Z,8.65
2022-08-20T22:59:49.733Z,7.10
2022-08-20T23:04:59.965Z,5.00
2022-08-20T23:10:06.959Z,5.45
2022-08-20T23:15:14.617Z,4.63
2022-08-20T23:20:20.639Z,6.28
2022-08-20T23:25:26.581Z,9.10
2022-08-20T23:30:35.293Z,5.15
2022-08-20T23:35:43.566Z,4.55
2022-08-20T23:40:50.629Z,4.57
2022-08-20T23:46:01.179Z,6.32
2022-08-20T23:51:07.493Z,4.93
2022-08-20T23:56:14.075Z,4.47
